Time;durP1;ratioP1;P1;durP2;ratioP2;P2;SDS_P1;SDS_P2;PMS_P1;PMS_P2;Temp;Humidity;BMP_temperature;BMP_pressure;BME280_temperature;BME280_humidity;BME280_pressure;Samples;Min_cycle;Max_cycle;Signal;HPM_P1;HPM_P2
2021/08/17 00:01:45;;;;;;;11.25;2.60;;;15.10;89.40;;;;;;5037197;28;20017;-85
2021/08/17 00:04:11;;;;;;;8.80;2.40;;;15.10;88.30;;;;;;5037626;28;20040;-85
2021/08/17 00:06:37;;;;;;;7.78;2.50;;;15.10;89.60;;;;;;5037695;28;20037;-85
2021/08/17 00:09:03;;;;;;;12.73;3.25;;;15.10;90.00;;;;;;5054653;28;20104;-85
2021/08/17 00:11:28;;;;;;;5.78;2.08;;;15.10;89.50;;;;;;5054229;28;20025;-86
2021/08/17 00:13:55;;;;;;;7.57;1.95;;;15.10;89.80;;;;;;5054157;28;20025;-85
2021/08/17 00:16:21;;;;;;;8.35;2.50;;;15.00;89.80;;;;;;5054142;28;20039;-84
2021/08/17 00:18:46;;;;;;;10.38;3.00;;;15.00;90.10;;;;;;5070575;28;20021;-85
2021/08/17 00:21:15;;;;;;;8.60;2.55;;;15.00;90.10;;;;;;5053961;28;20093;-84
2021/08/17 00:23:41;;;;;;;10.80;2.53;;;15.00;90.00;;;;;;5055106;28;20033;-85
2021/08/17 00:26:07;;;;;;;8.52;2.65;;;14.90;90.00;;;;;;5037312;28;20029;-85
2021/08/17 00:28:33;;;;;;;11.85;3.47;;;14.90;90.00;;;;;;5053656;28;20032;-85
2021/08/17 00:30:58;;;;;;;7.63;2.17;;;14.90;90.00;;;;;;5020689;28;20028;-85
2021/08/17 00:33:24;;;;;;;8.77;2.30;;;15.00;90.20;;;;;;5056245;28;20024;-85
2021/08/17 00:35:52;;;;;;;7.38;2.40;;;14.90;90.10;;;;;;5037271;28;20078;-85
2021/08/17 00:38:17;;;;;;;9.02;2.70;;;14.90;90.10;;;;;;5047056;28;20103;-85
2021/08/17 00:40:43;;;;;;;10.23;2.55;;;14.90;90.10;;;;;;5053555;28;20447;-85
2021/08/17 00:43:10;;;;;;;9.45;2.30;;;14.90;89.80;;;;;;5054777;28;20024;-85
2021/08/17 00:45:37;;;;;;;10.82;3.03;;;14.90;90.10;;;;;;5053684;28;20029;-85
2021/08/17 00:48:03;;;;;;;9.82;2.45;;;14.80;90.10;;;;;;5044249;28;20032;-85
2021/08/17 00:50:34;;;;;;;8.05;2.45;;;14.80;90.20;;;;;;5034433;28;20022;-85
2021/08/17 00:53:01;;;;;;;7.57;2.30;;;14.80;90.60;;;;;;5053590;28;20039;-84
2021/08/17 00:55:28;;;;;;;7.82;2.45;;;14.80;90.30;;;;;;5053409;28;20029;-85
2021/08/17 00:57:54;;;;;;;9.15;2.28;;;14.80;90.40;;;;;;5053284;28;20393;-86
2021/08/17 01:00:19;;;;;;;7.95;2.45;;;14.80;90.40;;;;;;5070183;28;20474;-86
2021/08/17 01:02:47;;;;;;;7.60;2.38;;;14.80;90.30;;;;;;5020448;28;20060;-85
2021/08/17 01:05:13;;;;;;;10.65;2.72;;;14.80;90.40;;;;;;5053346;28;20029;-85
2021/08/17 01:07:39;;;;;;;6.88;2.55;;;14.70;90.40;;;;;;5053169;28;20021;-85
2021/08/17 01:10:06;;;;;;;6.60;2.42;;;14.70;90.50;;;;;;5054438;28;20029;-85
2021/08/17 01:12:39;;;;;;;6.68;2.28;;;14.70;90.50;;;;;;5069350;28;20029;-85
2021/08/17 01:15:07;;;;;;;8.70;2.47;;;14.70;90.60;;;;;;5036853;28;20367;-85
2021/08/17 01:17:33;;;;;;;8.18;2.72;;;14.70;90.50;;;;;;5069666;28;20170;-85
2021/08/17 01:19:59;;;;;;;6.13;2.38;;;14.70;90.80;;;;;;5053091;28;20486;-85
2021/08/17 01:22:24;;;;;;;8.52;2.70;;;14.70;90.60;;;;;;5054155;28;20032;-85
2021/08/17 01:24:50;;;;;;;7.43;2.33;;;14.70;90.50;;;;;;5053359;28;20061;-85
2021/08/17 01:27:16;;;;;;;7.28;2.55;;;14.60;90.50;;;;;;5053115;28;20033;-86
2021/08/17 01:29:42;;;;;;;7.05;2.67;;;14.60;90.70;;;;;;5053395;28;20029;-85
2021/08/17 01:32:12;;;;;;;8.35;2.65;;;14.60;90.80;;;;;;5045360;28;20068;-85
2021/08/17 01:34:38;;;;;;;11.73;2.75;;;14.60;91.10;;;;;;5046657;28;20029;-85
2021/08/17 01:37:04;;;;;;;7.55;2.55;;;14.60;90.90;;;;;;5052746;28;20066;-85
2021/08/17 01:39:30;;;;;;;8.95;2.80;;;14.60;90.90;;;;;;5036172;28;20033;-86
2021/08/17 01:41:55;;;;;;;8.45;2.83;;;14.60;90.80;;;;;;5052834;28;20021;-85
2021/08/17 01:44:21;;;;;;;12.88;3.65;;;14.50;91.10;;;;;;5052732;28;20111;-85
2021/08/17 01:46:47;;;;;;;9.77;3.38;;;14.50;91.10;;;;;;5053596;28;20436;-85
2021/08/17 01:49:28;;;;;;;9.70;3.38;;;14.50;91.40;;;;;;5052820;28;20014;-85
2021/08/17 01:51:53;;;;;;;6.90;2.28;;;14.40;91.10;;;;;;5052101;28;20056;-85
2021/08/17 01:54:19;;;;;;;7.80;2.53;;;14.40;91.20;;;;;;5039338;28;20021;-85
2021/08/17 01:56:46;;;;;;;10.43;3.35;;;14.40;91.20;;;;;;5039232;28;20475;-85
2021/08/17 01:59:16;;;;;;;5.68;2.50;;;14.30;91.50;;;;;;5046561;28;20032;-85
2021/08/17 02:01:42;;;;;;;7.25;3.20;;;14.30;91.70;;;;;;5045175;28;20029;-84
2021/08/17 02:04:08;;;;;;;8.25;3.38;;;14.30;91.70;;;;;;5053527;28;20028;-85
2021/08/17 02:06:33;;;;;;;10.38;3.58;;;14.20;91.80;;;;;;5052584;28;20033;-86
2021/08/17 02:09:01;;;;;;;8.13;2.80;;;14.20;91.90;;;;;;5068875;28;20108;-86
2021/08/17 02:11:26;;;;;;;10.05;3.65;;;14.20;91.90;;;;;;5052733;28;20423;-85
2021/08/17 02:13:52;;;;;;;7.97;3.15;;;14.20;92.10;;;;;;5035584;28;20064;-86
2021/08/17 02:16:18;;;;;;;8.45;3.72;;;14.10;92.20;;;;;;5035558;28;20092;-85
2021/08/17 02:18:44;;;;;;;8.50;3.05;;;14.10;92.10;;;;;;5040595;28;20030;-85
2021/08/17 02:21:09;;;;;;;10.18;3.50;;;14.00;92.30;;;;;;5046540;28;20467;-85
2021/08/17 02:23:35;;;;;;;7.60;3.03;;;14.00;92.40;;;;;;5032591;28;20087;-85
2021/08/17 02:26:01;;;;;;;10.63;3.63;;;14.00;92.50;;;;;;5019744;28;20029;-85
2021/08/17 02:28:26;;;;;;;8.38;3.28;;;13.90;92.60;;;;;;5036305;28;20108;-86
2021/08/17 02:30:53;;;;;;;8.35;3.28;;;13.90;92.70;;;;;;5035973;28;20025;-85
2021/08/17 02:33:19;;;;;;;10.85;3.42;;;13.90;92.70;;;;;;5037622;28;20021;-85
2021/08/17 02:35:45;;;;;;;7.82;2.95;;;13.80;92.80;;;;;;5019687;28;20045;-85
2021/08/17 02:38:11;;;;;;;8.50;3.25;;;13.80;92.90;;;;;;5036258;28;20034;-85
2021/08/17 02:40:38;;;;;;;8.95;3.72;;;13.80;93.00;;;;;;5019615;28;20131;-85
2021/08/17 02:43:04;;;;;;;8.65;3.35;;;13.80;93.10;;;;;;5019333;28;20088;-85
2021/08/17 02:45:30;;;;;;;10.15;3.42;;;13.80;93.40;;;;;;5039963;28;20031;-85
2021/08/17 02:47:58;;;;;;;8.88;3.78;;;13.70;93.10;;;;;;5046453;28;20021;-86
2021/08/17 02:50:24;;;;;;;7.63;3.50;;;13.70;93.10;;;;;;5035772;28;20563;-85
2021/08/17 02:52:51;;;;;;;9.05;4.00;;;13.70;93.30;;;;;;5035545;28;20042;-85
2021/08/17 02:55:16;;;;;;;9.63;3.83;;;13.70;93.50;;;;;;5035554;28;20025;-86
2021/08/17 02:57:48;;;;;;;11.20;4.03;;;13.70;93.60;;;;;;5019296;28;20028;-86
2021/08/17 03:00:14;;;;;;;7.78;3.65;;;13.70;93.60;;;;;;5037411;28;20029;-85
2021/08/17 03:02:40;;;;;;;8.63;3.60;;;13.60;93.60;;;;;;5035587;28;20076;-85
2021/08/17 03:05:06;;;;;;;10.75;4.07;;;13.60;93.60;;;;;;5018901;28;20030;-86
2021/08/17 03:07:31;;;;;;;9.38;4.00;;;13.60;93.80;;;;;;5035543;28;20021;-85
2021/08/17 03:09:57;;;;;;;10.00;3.92;;;13.60;93.80;;;;;;5018935;28;20382;-85
2021/08/17 03:12:23;;;;;;;7.95;3.90;;;13.60;93.90;;;;;;5035647;28;20467;-85
2021/08/17 03:14:48;;;;;;;12.50;4.05;;;13.60;93.90;;;;;;5036158;28;20029;-86
2021/08/17 03:17:14;;;;;;;8.32;3.60;;;13.60;93.90;;;;;;5036111;28;20415;-86
2021/08/17 03:23:03;;;;;;;9.75;4.28;;;13.60;94.00;;;;;;5053563;28;20505;-85
2021/08/17 03:25:29;;;;;;;7.72;3.35;;;13.60;94.20;;;;;;5054977;28;20437;-85
2021/08/17 03:27:55;;;;;;;8.68;3.97;;;13.50;94.20;;;;;;5022145;28;20017;-86
2021/08/17 03:30:22;;;;;;;10.15;5.10;;;13.50;94.30;;;;;;5071861;28;20082;-86
2021/08/17 03:32:48;;;;;;;9.48;4.20;;;13.50;94.40;;;;;;5056148;28;20021;-85
2021/08/17 03:35:15;;;;;;;11.32;4.80;;;13.60;94.40;;;;;;5071344;28;20086;-85
2021/08/17 03:37:42;;;;;;;10.65;3.90;;;13.50;94.50;;;;;;5071384;28;20115;-85
2021/08/17 03:40:10;;;;;;;8.70;4.22;;;13.60;94.50;;;;;;5038728;28;20486;-84
2021/08/17 03:42:37;;;;;;;9.50;4.47;;;13.50;94.60;;;;;;5038315;28;20039;-85
2021/08/17 03:45:04;;;;;;;10.48;3.90;;;13.50;94.70;;;;;;5054725;28;20028;-85
2021/08/17 03:47:30;;;;;;;10.18;4.22;;;13.50;94.70;;;;;;5071305;28;20049;-85
2021/08/17 03:50:34;;;;;;;10.18;5.10;;;13.60;94.80;;;;;;5066464;28;20068;-85
2021/08/17 03:52:59;;;;;;;8.88;4.70;;;13.50;94.70;;;;;;5037169;28;20590;-86
2021/08/17 03:55:25;;;;;;;8.23;3.95;;;13.50;94.90;;;;;;5054447;28;20119;-86
2021/08/17 03:57:51;;;;;;;9.05;4.45;;;13.50;95.00;;;;;;5038006;28;20470;-85
2021/08/17 04:00:19;;;;;;;11.15;4.80;;;13.50;95.10;;;;;;5037968;28;20399;-85
2021/08/17 04:02:45;;;;;;;9.70;5.13;;;13.50;95.10;;;;;;5054424;28;20032;-85
2021/08/17 04:05:12;;;;;;;10.13;4.68;;;13.60;95.30;;;;;;5054362;28;20387;-85
2021/08/17 04:07:38;;;;;;;9.57;4.50;;;13.60;95.40;;;;;;5054978;28;20040;-85
2021/08/17 04:10:05;;;;;;;10.57;4.97;;;13.60;95.40;;;;;;5054288;28;20025;-85
2021/08/17 04:12:31;;;;;;;9.95;5.20;;;13.60;95.50;;;;;;5037479;28;20025;-85
2021/08/17 04:14:56;;;;;;;10.80;5.53;;;13.60;95.70;;;;;;5037515;28;20486;-85
2021/08/17 04:17:22;;;;;;;10.30;5.40;;;13.60;95.60;;;;;;5037283;28;20056;-85
2021/08/17 04:19:48;;;;;;;9.68;5.32;;;13.70;95.70;;;;;;5054019;28;20021;-85
2021/08/17 04:22:13;;;;;;;9.25;5.00;;;13.70;95.70;;;;;;5037328;28;20025;-85
2021/08/17 04:24:39;;;;;;;8.02;5.03;;;13.70;95.70;;;;;;5027219;28;20029;-85
2021/08/17 04:27:20;;;;;;;12.10;5.25;;;13.70;95.70;;;;;;5017401;28;20459;-85
2021/08/17 04:29:46;;;;;;;12.45;5.20;;;13.70;95.80;;;;;;5022930;28;20028;-85
2021/08/17 04:32:13;;;;;;;10.38;5.75;;;13.80;96.10;;;;;;5005788;28;20034;-85
2021/08/17 04:34:39;;;;;;;10.57;5.47;;;13.70;95.90;;;;;;5042067;28;20072;-85
2021/08/17 04:37:05;;;;;;;10.75;4.68;;;13.70;95.90;;;;;;5053754;28;20029;-85
2021/08/17 04:39:31;;;;;;;13.63;5.25;;;13.80;95.90;;;;;;5064983;28;20010;-85
2021/08/17 04:41:57;;;;;;;9.60;4.93;;;13.80;95.90;;;;;;5033574;28;20511;-85
2021/08/17 04:44:23;;;;;;;10.23;5.20;;;13.80;96.00;;;;;;5016993;28;20041;-85
2021/08/17 04:46:49;;;;;;;9.90;5.65;;;13.80;96.00;;;;;;5016583;28;20059;-85
2021/08/17 04:49:14;;;;;;;10.65;5.32;;;13.90;96.10;;;;;;5033074;28;20017;-85
2021/08/17 04:51:40;;;;;;;9.82;5.07;;;13.90;96.00;;;;;;5051063;23;20059;-83
2021/08/17 04:54:21;;;;;;;11.82;6.47;;;13.90;96.10;;;;;;5035425;28;20111;-83
2021/08/17 04:56:47;;;;;;;11.43;5.65;;;13.90;96.00;;;;;;5064460;28;20053;-83
2021/08/17 04:59:12;;;;;;;11.80;6.07;;;13.90;96.10;;;;;;5035432;28;20539;-83
2021/08/17 05:01:38;;;;;;;12.43;6.05;;;14.00;96.10;;;;;;5051650;28;20124;-83
2021/08/17 05:04:04;;;;;;;10.15;6.18;;;14.00;96.20;;;;;;5051748;28;20060;-83
2021/08/17 05:06:30;;;;;;;11.05;6.60;;;14.00;96.20;;;;;;5035213;28;20108;-82
2021/08/17 05:08:56;;;;;;;14.27;7.03;;;14.10;96.20;;;;;;5051840;28;20120;-83
2021/08/17 05:11:21;;;;;;;15.13;7.97;;;14.10;96.30;;;;;;5052775;28;20025;-83
2021/08/17 05:13:47;;;;;;;15.05;7.57;;;14.10;96.40;;;;;;5018425;28;20033;-83
2021/08/17 05:16:13;;;;;;;12.55;7.32;;;14.10;96.30;;;;;;5034835;28;20036;-83
2021/08/17 05:18:38;;;;;;;11.93;7.47;;;14.10;96.30;;;;;;5031396;28;20029;-83
2021/08/17 05:21:04;;;;;;;16.10;9.50;;;14.10;96.40;;;;;;5018454;28;20493;-83
2021/08/17 05:23:30;;;;;;;19.90;10.45;;;14.20;96.60;;;;;;5037177;28;20025;-82
2021/08/17 05:25:56;;;;;;;20.48;11.52;;;14.20;96.70;;;;;;5031269;28;20048;-83
2021/08/17 05:28:25;;;;;;;19.00;10.00;;;14.20;96.70;;;;;;5044679;28;20398;-83
2021/08/17 05:30:51;;;;;;;22.40;11.68;;;14.20;96.70;;;;;;5034637;28;20123;-84
2021/08/17 05:33:17;;;;;;;27.50;12.35;;;14.20;96.80;;;;;;5034630;28;20112;-84
2021/08/17 05:35:43;;;;;;;28.58;13.23;;;14.20;96.90;;;;;;5051177;28;20025;-84
2021/08/17 05:38:10;;;;;;;26.77;14.45;;;14.30;97.00;;;;;;5034560;28;20128;-83
2021/08/17 05:40:36;;;;;;;32.70;15.98;;;14.30;97.00;;;;;;5051007;28;20031;-84
2021/08/17 05:43:03;;;;;;;29.52;14.77;;;14.30;97.20;;;;;;5034605;28;20029;-83
2021/08/17 05:45:30;;;;;;;30.25;15.52;;;14.40;97.30;;;;;;5041802;28;20446;-84
2021/08/17 05:47:56;;;;;;;33.22;16.27;;;14.40;97.50;;;;;;5031464;28;20025;-84
2021/08/17 05:50:21;;;;;;;35.08;16.65;;;14.40;97.60;;;;;;5050147;28;20021;-83
2021/08/17 05:52:47;;;;;;;31.35;16.02;;;14.50;97.60;;;;;;5047644;28;20486;-84
2021/08/17 05:55:14;;;;;;;26.98;14.70;;;14.50;97.70;;;;;;5042684;28;20036;-83
2021/08/17 05:57:40;;;;;;;29.92;15.70;;;14.50;97.60;;;;;;5045846;28;20032;-83
2021/08/17 06:00:09;;;;;;;35.03;16.90;;;14.60;97.70;;;;;;5047256;28;20021;-83
2021/08/17 06:02:35;;;;;;;33.63;16.05;;;14.60;97.70;;;;;;5049605;28;20398;-83
2021/08/17 06:05:01;;;;;;;34.90;16.48;;;14.60;97.60;;;;;;5033849;28;20028;-83
2021/08/17 06:07:26;;;;;;;39.15;18.08;;;14.70;97.60;;;;;;5021908;28;20493;-84
2021/08/17 06:09:52;;;;;;;33.60;15.77;;;14.70;97.80;;;;;;5017555;28;20115;-83
2021/08/17 06:12:18;;;;;;;32.50;16.52;;;14.70;97.70;;;;;;5033954;28;20029;-83
2021/08/17 06:14:43;;;;;;;35.45;18.08;;;14.80;97.80;;;;;;5048364;28;20116;-84
2021/08/17 06:17:09;;;;;;;30.23;16.20;;;14.80;97.90;;;;;;5051029;28;20025;-84
2021/08/17 06:19:35;;;;;;;33.40;16.95;;;14.80;97.90;;;;;;5047573;28;20021;-84
2021/08/17 06:22:01;;;;;;;38.75;19.75;;;14.80;97.80;;;;;;5040798;28;20027;-84
2021/08/17 06:24:27;;;;;;;36.78;17.92;;;14.90;97.90;;;;;;5039258;28;20104;-83
2021/08/17 06:26:52;;;;;;;34.83;18.20;;;14.90;97.90;;;;;;5019250;28;20029;-84
2021/08/17 06:29:18;;;;;;;35.85;17.17;;;14.90;97.90;;;;;;5062165;28;20471;-84
2021/08/17 06:31:44;;;;;;;39.92;17.75;;;15.00;98.00;;;;;;5042482;28;20474;-84
2021/08/17 06:34:10;;;;;;;42.35;20.75;;;15.00;98.00;;;;;;5033974;28;20074;-84
2021/08/17 06:36:36;;;;;;;36.65;17.73;;;15.00;98.00;;;;;;5034135;28;20025;-84
2021/08/17 06:42:40;;;;;;;33.75;17.48;;;15.10;98.00;;;;;;5051543;28;20035;-84
2021/08/17 06:45:06;;;;;;;37.90;19.58;;;15.10;98.00;;;;;;5051543;28;20037;-84
2021/08/17 06:47:32;;;;;;;34.25;18.15;;;15.10;98.00;;;;;;5050608;28;20048;-84
2021/08/17 06:49:57;;;;;;;35.22;17.77;;;15.20;98.00;;;;;;5044190;28;20022;-84
2021/08/17 06:52:23;;;;;;;34.90;17.33;;;15.20;98.00;;;;;;5049703;28;20128;-84
2021/08/17 06:54:49;;;;;;;35.47;17.98;;;15.20;98.10;;;;;;5051329;28;20115;-84
2021/08/17 06:57:14;;;;;;;36.40;18.02;;;15.20;98.00;;;;;;5039012;28;20444;-84
2021/08/17 06:59:40;;;;;;;39.47;18.83;;;15.30;98.10;;;;;;5032607;28;20079;-83
2021/08/17 07:02:06;;;;;;;37.22;17.75;;;15.30;98.10;;;;;;5052694;28;20075;-84
2021/08/17 07:04:32;;;;;;;37.72;18.42;;;15.30;98.00;;;;;;5045669;28;20025;-83
2021/08/17 07:06:57;;;;;;;34.15;17.10;;;15.40;98.10;;;;;;5040950;28;20037;-84
2021/08/17 07:09:23;;;;;;;34.55;18.10;;;15.40;98.10;;;;;;5028797;28;20025;-84
2021/08/17 07:11:48;;;;;;;39.35;19.08;;;15.40;98.10;;;;;;5044332;28;20033;-84
2021/08/17 07:14:14;;;;;;;35.40;17.17;;;15.40;98.20;;;;;;5063824;28;20466;-84
2021/08/17 07:16:40;;;;;;;38.28;18.45;;;15.50;98.10;;;;;;5039692;28;20029;-83
2021/08/17 07:19:06;;;;;;;40.33;19.20;;;15.50;98.10;;;;;;5054035;28;20021;-83
2021/08/17 07:24:53;;;;;;;37.65;17.48;;;15.50;98.00;;;;;;5053572;28;20493;-84
2021/08/17 07:27:19;;;;;;;34.10;17.65;;;15.60;98.10;;;;;;5020600;28;20017;-84
2021/08/17 07:29:44;;;;;;;34.88;17.25;;;15.50;98.10;;;;;;5037266;28;20063;-83
2021/08/17 07:32:10;;;;;;;36.42;17.23;;;15.60;98.10;;;;;;5047436;28;20548;-84
2021/08/17 07:34:36;;;;;;;36.67;17.73;;;15.60;98.20;;;;;;5054013;28;20538;-83
2021/08/17 07:37:02;;;;;;;33.92;16.48;;;15.60;98.10;;;;;;5043389;28;20087;-83
2021/08/17 07:39:28;;;;;;;31.33;14.85;;;15.70;98.20;;;;;;5053872;28;20033;-84
2021/08/17 07:41:54;;;;;;;27.58;14.05;;;15.70;98.20;;;;;;5053249;28;20078;-84
2021/08/17 07:44:38;;;;;;;32.30;15.82;;;15.70;98.50;;;;;;5051930;28;20029;-84
2021/08/17 07:47:04;;;;;;;34.95;16.30;;;15.80;98.20;;;;;;5053257;28;20068;-84
2021/08/17 07:49:30;;;;;;;37.45;15.75;;;15.80;98.30;;;;;;5019844;28;20055;-83
2021/08/17 07:51:55;;;;;;;30.98;16.25;;;15.90;98.30;;;;;;5020138;28;20048;-83
2021/08/17 07:54:22;;;;;;;33.90;16.55;;;15.90;98.20;;;;;;5027000;28;20040;-84
2021/08/17 07:56:48;;;;;;;32.15;16.38;;;15.90;98.10;;;;;;5069534;28;20089;-84
2021/08/17 07:59:14;;;;;;;38.00;16.90;;;15.90;98.20;;;;;;5053292;28;20116;-84
2021/08/17 08:01:40;;;;;;;34.45;16.10;;;16.00;98.10;;;;;;5046641;28;20446;-84
2021/08/17 08:04:34;;;;;;;35.92;16.35;;;16.00;98.10;;;;;;5036281;28;20127;-84
2021/08/17 08:06:59;;;;;;;35.28;15.93;;;16.10;98.20;;;;;;5052629;28;20100;-84
2021/08/17 08:09:25;;;;;;;27.33;14.20;;;16.20;98.20;;;;;;5032834;28;20076;-85
2021/08/17 08:11:51;;;;;;;33.55;15.35;;;16.20;98.20;;;;;;5016549;28;20095;-84
2021/08/17 08:14:16;;;;;;;33.03;14.68;;;16.30;98.20;;;;;;5048703;28;20492;-84
2021/08/17 08:16:48;;;;;;;30.40;14.75;;;16.30;98.10;;;;;;5044494;28;20048;-84
2021/08/17 08:19:14;;;;;;;22.92;12.93;;;16.40;97.90;;;;;;5050904;28;20029;-85
2021/08/17 08:21:39;;;;;;;23.77;12.80;;;16.40;97.80;;;;;;5052112;28;20031;-85
2021/08/17 08:24:05;;;;;;;27.55;13.85;;;16.40;97.90;;;;;;5041889;28;20411;-85
2021/08/17 08:26:31;;;;;;;29.80;14.15;;;16.50;97.80;;;;;;5029018;28;20509;-84
2021/08/17 08:28:56;;;;;;;23.45;11.52;;;16.50;97.80;;;;;;5033679;28;20491;-85
2021/08/17 08:31:22;;;;;;;24.77;12.90;;;16.60;97.90;;;;;;5039894;28;20033;-84
2021/08/17 08:33:49;;;;;;;24.70;12.68;;;16.60;97.70;;;;;;5038953;28;20028;-84
2021/08/17 08:36:16;;;;;;;23.67;11.35;;;16.60;97.50;;;;;;5052938;28;20078;-85
2021/08/17 08:38:41;;;;;;;22.48;11.95;;;16.70;97.50;;;;;;5044979;28;20013;-83
2021/08/17 08:41:07;;;;;;;24.48;11.70;;;16.70;97.50;;;;;;5036132;28;20124;-84
2021/08/17 08:43:33;;;;;;;20.77;10.73;;;16.70;97.30;;;;;;5047923;28;20040;-83
2021/08/17 08:45:59;;;;;;;23.40;11.20;;;16.70;97.20;;;;;;5047569;28;20038;-83
2021/08/17 08:48:25;;;;;;;21.40;11.32;;;16.80;97.10;;;;;;5037300;28;20109;-83
2021/08/17 08:50:51;;;;;;;22.40;11.05;;;16.80;96.90;;;;;;5036244;28;20379;-83
2021/08/17 08:53:19;;;;;;;23.13;10.90;;;16.80;96.80;;;;;;5046578;28;20467;-83
2021/08/17 08:55:45;;;;;;;22.27;10.07;;;16.80;96.70;;;;;;5033235;28;20112;-83
2021/08/17 08:58:11;;;;;;;22.67;10.68;;;16.80;96.20;;;;;;5049093;28;20120;-83
2021/08/17 09:00:37;;;;;;;17.38;9.52;;;16.90;96.50;;;;;;5058942;28;20040;-84
2021/08/17 09:03:03;;;;;;;21.88;10.45;;;16.90;96.60;;;;;;5027268;28;20112;-83
2021/08/17 09:05:29;;;;;;;22.20;11.23;;;16.90;96.40;;;;;;5022567;28;20036;-83
2021/08/17 09:07:56;;;;;;;23.10;10.93;;;16.90;96.40;;;;;;5035043;28;20040;-84
2021/08/17 09:10:26;;;;;;;22.75;11.23;;;16.90;96.30;;;;;;5035114;28;20020;-83
2021/08/17 09:12:59;;;;;;;20.20;11.38;;;16.90;96.40;;;;;;5039261;28;20029;-83
2021/08/17 09:15:34;;;;;;;27.33;12.30;;;16.90;96.50;;;;;;5051761;28;20025;-83
2021/08/17 09:18:05;;;;;;;22.17;10.65;;;16.90;95.90;;;;;;5051949;28;20048;-83
2021/08/17 09:20:40;;;;;;;20.58;11.10;;;16.90;96.20;;;;;;5038556;28;20060;-83
2021/08/17 09:23:26;;;;;;;18.70;10.48;;;16.90;96.20;;;;;;5068034;28;20025;-83
2021/08/17 09:25:53;;;;;;;21.20;10.65;;;16.90;96.00;;;;;;5054978;28;20083;-84
2021/08/17 09:28:36;;;;;;;20.33;10.55;;;16.90;96.10;;;;;;5055461;28;20037;-84
2021/08/17 09:31:23;;;;;;;18.05;10.45;;;17.00;95.10;;;;;;5038408;28;20470;-84
2021/08/17 09:33:50;;;;;;;18.80;10.35;;;17.00;95.40;;;;;;5051684;28;20032;-83
2021/08/17 09:36:16;;;;;;;17.90;9.88;;;17.00;95.40;;;;;;5067821;28;20029;-83
2021/08/17 09:38:41;;;;;;;20.80;10.82;;;17.00;95.60;;;;;;5031301;28;20502;-84
2021/08/17 09:41:19;;;;;;;20.45;10.30;;;17.00;95.30;;;;;;5031148;28;20035;-83
2021/08/17 09:44:06;;;;;;;18.90;9.38;;;17.10;95.20;;;;;;5032416;28;20037;-83
2021/08/17 09:46:34;;;;;;;17.88;9.98;;;17.10;95.20;;;;;;5039485;28;20053;-83
2021/08/17 09:49:36;;;;;;;17.63;8.88;;;17.10;95.00;;;;;;5045963;28;20029;-82
2021/08/17 09:52:17;;;;;;;16.15;9.55;;;17.20;94.90;;;;;;4979169;28;20054;-83
2021/08/17 09:54:45;;;;;;;17.42;9.02;;;17.20;94.50;;;;;;5059240;28;20111;-83
2021/08/17 09:57:11;;;;;;;17.02;9.80;;;17.20;94.50;;;;;;5052212;28;20032;-83
2021/08/17 09:59:42;;;;;;;16.60;8.32;;;17.20;94.50;;;;;;5034130;28;20483;-84
2021/08/17 10:02:08;;;;;;;;;;;17.30;94.70;;;;;;5057618;28;20483;-83
2021/08/17 10:04:36;;;;;;;17.48;8.43;;;17.30;94.20;;;;;;5031308;28;20234;-83
2021/08/17 10:07:04;;;;;;;15.65;8.25;;;17.30;94.10;;;;;;5052063;28;20021;-83
2021/08/17 10:09:30;;;;;;;17.13;8.90;;;17.20;93.90;;;;;;5032816;28;20036;-84
2021/08/17 10:11:56;;;;;;;16.30;8.32;;;17.30;94.10;;;;;;5054859;28;20471;-83
2021/08/17 10:14:22;;;;;;;19.58;8.90;;;17.30;94.30;;;;;;5067332;28;20033;-84
2021/08/17 10:16:48;;;;;;;14.85;7.88;;;17.30;94.40;;;;;;5050930;28;20025;-84
2021/08/17 10:19:22;;;;;;;15.55;8.07;;;17.40;94.10;;;;;;5039157;28;20120;-84
2021/08/17 10:21:49;;;;;;;15.10;8.25;;;17.30;93.90;;;;;;5036581;28;20041;-84
2021/08/17 10:24:36;;;;;;;14.60;7.80;;;17.40;94.10;;;;;;5034083;28;20026;-83
2021/08/17 10:27:33;;;;;;;14.25;7.63;;;17.40;94.10;;;;;;5047880;28;20033;-83
2021/08/17 10:30:10;;;;;;;15.13;7.15;;;17.40;93.70;;;;;;5050728;28;20025;-83
2021/08/17 10:32:48;;;;;;;17.70;8.05;;;17.50;94.10;;;;;;5061819;28;20025;-83
2021/08/17 10:35:52;;;;;;;15.65;8.13;;;17.50;93.70;;;;;;5032173;28;20475;-83
2021/08/17 10:38:17;;;;;;;12.20;7.72;;;17.50;93.40;;;;;;5029347;28;20098;-83
2021/08/17 10:40:50;;;;;;;14.57;8.05;;;17.50;93.70;;;;;;5049892;28;20542;-83
2021/08/17 10:43:29;;;;;;;13.65;7.13;;;17.50;93.30;;;;;;5052109;28;20425;-83
2021/08/17 10:46:24;;;;;;;11.82;6.50;;;17.50;93.30;;;;;;5052009;28;20021;-83
2021/08/17 10:48:58;;;;;;;12.23;6.95;;;17.50;93.40;;;;;;5033516;28;20029;-82
2021/08/17 10:51:30;;;;;;;12.68;6.80;;;17.50;93.40;;;;;;5055130;22;20048;-82
2021/08/17 10:54:05;;;;;;;13.98;7.65;;;17.50;93.20;;;;;;5046944;28;20017;-82
2021/08/17 10:56:33;;;;;;;12.57;6.53;;;17.50;93.10;;;;;;5070303;28;20029;-83
2021/08/17 10:58:59;;;;;;;11.20;6.00;;;17.50;93.40;;;;;;5041430;28;20026;-82
2021/08/17 11:01:31;;;;;;;14.05;6.60;;;17.50;93.60;;;;;;5053931;28;20098;-82
2021/08/17 11:04:18;;;;;;;11.25;6.20;;;17.50;93.50;;;;;;5052421;28;20457;-84
2021/08/17 11:06:48;;;;;;;13.98;6.20;;;17.50;93.10;;;;;;5045689;28;20060;-84
2021/08/17 11:09:17;;;;;;;12.00;6.63;;;17.50;93.30;;;;;;5047475;28;20025;-84
2021/08/17 11:11:46;;;;;;;9.98;5.25;;;17.50;93.10;;;;;;5049520;28;20029;-84
2021/08/17 11:14:18;;;;;;;10.23;5.07;;;17.50;93.20;;;;;;5034052;28;20029;-83
2021/08/17 11:16:50;;;;;;;9.50;5.28;;;17.50;93.10;;;;;;5048185;28;20017;-84
2021/08/17 11:19:19;;;;;;;14.55;5.93;;;17.50;93.10;;;;;;5045980;28;20053;-84
2021/08/17 11:21:56;;;;;;;10.50;4.88;;;17.50;93.00;;;;;;5053847;28;20036;-84
2021/08/17 11:24:27;;;;;;;10.20;5.50;;;17.50;93.00;;;;;;5052515;28;20017;-84
2021/08/17 11:27:04;;;;;;;13.32;6.00;;;17.50;92.80;;;;;;5052886;28;20048;-84
2021/08/17 11:29:31;;;;;;;9.23;5.45;;;17.50;92.70;;;;;;5033720;28;20108;-84
2021/08/17 11:31:59;;;;;;;11.48;5.55;;;17.40;92.60;;;;;;5035248;28;20083;-84
2021/08/17 11:34:27;;;;;;;10.25;4.95;;;17.40;92.70;;;;;;5030758;28;20032;-85
2021/08/17 11:37:14;;;;;;;11.85;5.15;;;17.40;92.90;;;;;;5040392;28;20409;-85
2021/08/17 11:39:42;;;;;;;8.50;4.78;;;17.40;93.10;;;;;;5064223;28;20025;-85
2021/08/17 11:42:19;;;;;;;9.32;5.13;;;17.40;93.40;;;;;;5043343;28;20034;-85
2021/08/17 11:44:47;;;;;;;9.95;5.00;;;17.30;93.40;;;;;;5040136;28;20025;-85
2021/08/17 11:47:16;;;;;;;11.10;5.57;;;17.30;93.70;;;;;;5039804;28;20112;-85
2021/08/17 11:49:43;;;;;;;10.18;5.20;;;17.30;93.70;;;;;;5049121;28;20100;-84
2021/08/17 11:52:16;;;;;;;10.63;5.72;;;17.20;93.90;;;;;;5016256;28;20133;-84
2021/08/17 11:54:52;;;;;;;10.15;4.90;;;17.20;94.00;;;;;;5062059;28;20028;-85
2021/08/17 11:57:23;;;;;;;11.15;5.22;;;17.20;94.10;;;;;;5049104;28;20029;-84
2021/08/17 11:59:50;;;;;;;9.25;5.15;;;17.20;94.30;;;;;;5047472;28;20067;-84
2021/08/17 12:02:22;;;;;;;11.43;5.63;;;17.10;94.40;;;;;;5054025;28;20021;-85
2021/08/17 12:04:49;;;;;;;12.40;5.53;;;17.10;94.60;;;;;;5053547;28;20521;-84
2021/08/17 12:07:16;;;;;;;9.98;5.53;;;17.10;94.80;;;;;;5042899;28;20112;-84
2021/08/17 12:09:47;;;;;;;10.00;5.57;;;17.00;94.90;;;;;;5031187;28;20072;-84
2021/08/17 12:12:14;;;;;;;;;;;17.00;95.00;;;;;;5043294;28;20021;-84
2021/08/17 12:14:40;;;;;;;9.10;5.22;;;16.90;95.00;;;;;;5039378;28;19904;-83
2021/08/17 12:17:09;;;;;;;14.73;6.22;;;16.80;95.10;;;;;;5031209;28;20028;-84
2021/08/17 12:19:43;;;;;;;10.77;5.82;;;16.80;95.30;;;;;;5034574;28;20382;-83
2021/08/17 12:22:26;;;;;;;11.65;6.13;;;16.70;95.40;;;;;;5034834;28;20025;-83
2021/08/17 12:24:54;;;;;;;11.43;6.93;;;16.60;95.50;;;;;;5049747;28;20470;-83
2021/08/17 12:27:24;;;;;;;10.48;6.20;;;16.50;95.90;;;;;;5037986;28;20027;-84
2021/08/17 12:29:50;;;;;;;8.75;5.05;;;16.50;96.20;;;;;;5036550;28;20063;-84
2021/08/17 12:32:20;;;;;;;9.48;5.45;;;16.40;96.30;;;;;;5018812;28;20083;-84
2021/08/17 12:34:50;;;;;;;9.27;5.70;;;16.40;96.50;;;;;;5043104;28;20424;-84
2021/08/17 12:37:39;;;;;;;11.05;5.90;;;16.40;96.70;;;;;;5052215;28;20052;-84
2021/08/17 12:40:11;;;;;;;10.05;5.88;;;16.30;97.00;;;;;;5052414;28;20025;-85
2021/08/17 12:42:39;;;;;;;11.38;5.72;;;16.30;97.00;;;;;;5047827;28;20013;-84
2021/08/17 12:45:06;;;;;;;13.80;6.38;;;16.20;97.20;;;;;;5042770;28;20021;-84
2021/08/17 12:47:31;;;;;;;10.30;5.70;;;16.20;97.10;;;;;;5035461;28;20115;-84
2021/08/17 12:50:03;;;;;;;10.30;5.45;;;16.20;97.20;;;;;;5032158;28;20451;-85
2021/08/17 12:52:35;;;;;;;10.55;6.20;;;16.20;97.30;;;;;;5045751;28;20500;-84
2021/08/17 12:55:18;;;;;;;13.07;6.50;;;16.20;97.50;;;;;;5040525;28;20021;-84